sensor_id;sensor_type;location;lat;lon;timestamp;pressure;altitude;pressure_sealevel;temperature
67353;BMP180;54238;52.278;21.056;2023-11-21T00:00:15;99678.40;;;0.66
67353;BMP180;54238;52.278;21.056;2023-11-21T00:03:05;99679.80;;;0.62
67353;BMP180;54238;52.278;21.056;2023-11-21T00:05:37;99677.00;;;0.66
67353;BMP180;54238;52.278;21.056;2023-11-21T00:08:04;99683.60;;;0.70
67353;BMP180;54238;52.278;21.056;2023-11-21T00:10:34;99689.40;;;0.60
67353;BMP180;54238;52.278;21.056;2023-11-21T00:13:01;99685.40;;;0.60
67353;BMP180;54238;52.278;21.056;2023-11-21T00:15:33;99687.00;;;0.64
67353;BMP180;54238;52.278;21.056;2023-11-21T00:18:04;99694.40;;;0.70
67353;BMP180;54238;52.278;21.056;2023-11-21T00:20:33;99696.60;;;0.64
67353;BMP180;54238;52.278;21.056;2023-11-21T00:23:03;99702.80;;;0.68
67353;BMP180;54238;52.278;21.056;2023-11-21T00:25:34;99700.20;;;0.60
67353;BMP180;54238;52.278;21.056;2023-11-21T00:28:01;99701.00;;;0.60
67353;BMP180;54238;52.278;21.056;2023-11-21T00:30:35;99700.80;;;0.60
67353;BMP180;54238;52.278;21.056;2023-11-21T00:33:05;99698.40;;;0.60
67353;BMP180;54238;52.278;21.056;2023-11-21T00:35:32;99705.40;;;0.60
67353;BMP180;54238;52.278;21.056;2023-11-21T00:38:04;99709.60;;;0.50
67353;BMP180;54238;52.278;21.056;2023-11-21T00:40:31;99717.00;;;0.50
67353;BMP180;54238;52.278;21.056;2023-11-21T00:43:00;99716.20;;;0.50
67353;BMP180;54238;52.278;21.056;2023-11-21T00:45:27;99721.40;;;0.50
67353;BMP180;54238;52.278;21.056;2023-11-21T00:47:56;99720.40;;;0.44
67353;BMP180;54238;52.278;21.056;2023-11-21T00:50:25;99718.60;;;0.42
67353;BMP180;54238;52.278;21.056;2023-11-21T00:52:54;99715.40;;;0.40
67353;BMP180;54238;52.278;21.056;2023-11-21T00:55:24;99719.40;;;0.40
67353;BMP180;54238;52.278;21.056;2023-11-21T00:57:56;99721.00;;;0.40
67353;BMP180;54238;52.278;21.056;2023-11-21T01:00:26;99718.40;;;0.40
67353;BMP180;54238;52.278;21.056;2023-11-21T01:02:53;99720.20;;;0.40
67353;BMP180;54238;52.278;21.056;2023-11-21T01:05:20;99718.60;;;0.40
67353;BMP180;54238;52.278;21.056;2023-11-21T01:07:49;99720.20;;;0.40
67353;BMP180;54238;52.278;21.056;2023-11-21T01:10:17;99721.40;;;0.40
67353;BMP180;54238;52.278;21.056;2023-11-21T01:12:47;99724.20;;;0.40
67353;BMP180;54238;52.278;21.056;2023-11-21T01:15:18;99728.60;;;0.40
67353;BMP180;54238;52.278;21.056;2023-11-21T01:17:50;99729.20;;;0.40
67353;BMP180;54238;52.278;21.056;2023-11-21T01:20:21;99729.00;;;0.40
67353;BMP180;54238;52.278;21.056;2023-11-21T01:22:48;99733.00;;;0.40
67353;BMP180;54238;52.278;21.056;2023-11-21T01:25:17;99737.20;;;0.40
67353;BMP180;54238;52.278;21.056;2023-11-21T01:27:44;99737.80;;;0.40
67353;BMP180;54238;52.278;21.056;2023-11-21T01:30:12;99745.20;;;0.38
67353;BMP180;54238;52.278;21.056;2023-11-21T01:32:45;99742.60;;;0.32
67353;BMP180;54238;52.278;21.056;2023-11-21T01:35:12;99747.00;;;0.30
67353;BMP180;54238;52.278;21.056;2023-11-21T01:37:40;99746.80;;;0.30
67353;BMP180;54238;52.278;21.056;2023-11-21T01:40:10;99748.80;;;0.30
67353;BMP180;54238;52.278;21.056;2023-11-21T01:42:42;99741.20;;;0.30
67353;BMP180;54238;52.278;21.056;2023-11-21T01:45:14;99744.20;;;0.20
67353;BMP180;54238;52.278;21.056;2023-11-21T01:47:44;99744.60;;;0.20
67353;BMP180;54238;52.278;21.056;2023-11-21T01:50:17;99744.60;;;0.20
67353;BMP180;54238;52.278;21.056;2023-11-21T01:52:46;99748.40;;;0.20
67353;BMP180;54238;52.278;21.056;2023-11-21T01:55:17;99745.80;;;0.20
67353;BMP180;54238;52.278;21.056;2023-11-21T01:57:47;99747.00;;;0.20
67353;BMP180;54238;52.278;21.056;2023-11-21T02:00:15;99749.60;;;0.20
67353;BMP180;54238;52.278;21.056;2023-11-21T02:02:46;99748.00;;;0.20
67353;BMP180;54238;52.278;21.056;2023-11-21T02:05:18;99747.60;;;0.20
67353;BMP180;54238;52.278;21.056;2023-11-21T02:07:48;99750.00;;;0.20
67353;BMP180;54238;52.278;21.056;2023-11-21T02:10:18;99750.40;;;0.22
67353;BMP180;54238;52.278;21.056;2023-11-21T02:12:52;99747.00;;;0.30
67353;BMP180;54238;52.278;21.056;2023-11-21T02:15:22;99749.60;;;0.20
67353;BMP180;54238;52.278;21.056;2023-11-21T02:17:55;99753.60;;;0.20
67353;BMP180;54238;52.278;21.056;2023-11-21T02:20:27;99747.60;;;0.20
67353;BMP180;54238;52.278;21.056;2023-11-21T02:22:59;99751.80;;;0.20
67353;BMP180;54238;52.278;21.056;2023-11-21T02:25:33;99754.60;;;0.18
67353;BMP180;54238;52.278;21.056;2023-11-21T02:28:02;99757.40;;;0.10
67353;BMP180;54238;52.278;21.056;2023-11-21T02:30:32;99764.60;;;0.18
67353;BMP180;54238;52.278;21.056;2023-11-21T02:33:06;99765.40;;;0.20
67353;BMP180;54238;52.278;21.056;2023-11-21T02:35:36;99765.40;;;0.20
67353;BMP180;54238;52.278;21.056;2023-11-21T02:38:07;99761.00;;;0.16
67353;BMP180;54238;52.278;21.056;2023-11-21T02:40:36;99762.60;;;0.10
67353;BMP180;54238;52.278;21.056;2023-11-21T02:43:03;99761.40;;;0.10
67353;BMP180;54238;52.278;21.056;2023-11-21T02:45:33;99761.80;;;0.10
67353;BMP180;54238;52.278;21.056;2023-11-21T02:48:00;99768.80;;;0.06
67353;BMP180;54238;52.278;21.056;2023-11-21T02:50:27;99771.80;;;0.00
67353;BMP180;54238;52.278;21.056;2023-11-21T02:52:56;99773.00;;;0.00
67353;BMP180;54238;52.278;21.056;2023-11-21T02:55:29;99776.20;;;0.00
67353;BMP180;54238;52.278;21.056;2023-11-21T02:57:56;99768.00;;;0.10
67353;BMP180;54238;52.278;21.056;2023-11-21T03:00:23;99772.20;;;0.10
67353;BMP180;54238;52.278;21.056;2023-11-21T03:02:56;99772.80;;;0.10
67353;BMP180;54238;52.278;21.056;2023-11-21T03:05:28;99775.80;;;0.10
67353;BMP180;54238;52.278;21.056;2023-11-21T03:07:55;99777.00;;;0.10
67353;BMP180;54238;52.278;21.056;2023-11-21T03:10:22;99780.80;;;0.10
67353;BMP180;54238;52.278;21.056;2023-11-21T03:12:55;99784.20;;;0.10
67353;BMP180;54238;52.278;21.056;2023-11-21T03:15:24;99781.80;;;0.10
67353;BMP180;54238;52.278;21.056;2023-11-21T03:17:51;99783.40;;;0.10
67353;BMP180;54238;52.278;21.056;2023-11-21T03:20:21;99786.40;;;0.10
67353;BMP180;54238;52.278;21.056;2023-11-21T03:22:50;99786.20;;;0.20
67353;BMP180;54238;52.278;21.056;2023-11-21T03:25:18;99787.80;;;0.20
67353;BMP180;54238;52.278;21.056;2023-11-21T03:27:48;99791.60;;;0.10
67353;BMP180;54238;52.278;21.056;2023-11-21T03:30:15;99791.00;;;0.10
67353;BMP180;54238;52.278;21.056;2023-11-21T03:32:44;99786.60;;;0.02
67353;BMP180;54238;52.278;21.056;2023-11-21T03:35:12;99794.00;;;0.00
67353;BMP180;54238;52.278;21.056;2023-11-21T03:37:41;99796.20;;;0.00
67353;BMP180;54238;52.278;21.056;2023-11-21T03:40:13;99796.60;;;0.00
67353;BMP180;54238;52.278;21.056;2023-11-21T03:42:44;99793.80;;;-0.06
67353;BMP180;54238;52.278;21.056;2023-11-21T03:45:11;99790.20;;;-0.08
67353;BMP180;54238;52.278;21.056;2023-11-21T03:47:41;99793.20;;;-0.10
67353;BMP180;54238;52.278;21.056;2023-11-21T03:50:11;99794.00;;;-0.10
67353;BMP180;54238;52.278;21.056;2023-11-21T03:52:38;99798.60;;;-0.20
67353;BMP180;54238;52.278;21.056;2023-11-21T03:55:06;99800.40;;;-0.20
67353;BMP180;54238;52.278;21.056;2023-11-21T03:57:36;99808.00;;;-0.20
67353;BMP180;54238;52.278;21.056;2023-11-21T04:00:16;99809.20;;;-0.20
67353;BMP180;54238;52.278;21.056;2023-11-21T04:02:43;99814.60;;;-0.20
67353;BMP180;54238;52.278;21.056;2023-11-21T04:05:12;99816.00;;;-0.22
67353;BMP180;54238;52.278;21.056;2023-11-21T04:07:44;99815.00;;;-0.22
67353;BMP180;54238;52.278;21.056;2023-11-21T04:10:13;99820.00;;;-0.20
67353;BMP180;54238;52.278;21.056;2023-11-21T04:12:40;99822.20;;;-0.20
67353;BMP180;54238;52.278;21.056;2023-11-21T04:15:11;99824.00;;;-0.28
67353;BMP180;54238;52.278;21.056;2023-11-21T04:17:43;99821.20;;;-0.30
67353;BMP180;54238;52.278;21.056;2023-11-21T04:20:11;99829.80;;;-0.30
67353;BMP180;54238;52.278;21.056;2023-11-21T04:22:39;99830.20;;;-0.32
67353;BMP180;54238;52.278;21.056;2023-11-21T04:25:13;99826.40;;;-0.40
67353;BMP180;54238;52.278;21.056;2023-11-21T04:27:44;99831.20;;;-0.40
67353;BMP180;54238;52.278;21.056;2023-11-21T04:30:15;99833.20;;;-0.38
67353;BMP180;54238;52.278;21.056;2023-11-21T04:32:45;99829.00;;;-0.30
67353;BMP180;54238;52.278;21.056;2023-11-21T04:35:15;99831.80;;;-0.30
67353;BMP180;54238;52.278;21.056;2023-11-21T04:37:45;99831.80;;;-0.30
67353;BMP180;54238;52.278;21.056;2023-11-21T04:40:14;99838.60;;;-0.30
67353;BMP180;54238;52.278;21.056;2023-11-21T04:42:41;99839.00;;;-0.30
67353;BMP180;54238;52.278;21.056;2023-11-21T04:45:09;99842.60;;;-0.30
67353;BMP180;54238;52.278;21.056;2023-11-21T04:47:38;99847.60;;;-0.30
67353;BMP180;54238;52.278;21.056;2023-11-21T04:50:07;99849.00;;;-0.30
67353;BMP180;54238;52.278;21.056;2023-11-21T04:52:34;99851.00;;;-0.40
67353;BMP180;54238;52.278;21.056;2023-11-21T04:55:04;99857.60;;;-0.40
67353;BMP180;54238;52.278;21.056;2023-11-21T04:57:39;99859.00;;;-0.40
67353;BMP180;54238;52.278;21.056;2023-11-21T05:00:12;99855.40;;;-0.40
67353;BMP180;54238;52.278;21.056;2023-11-21T05:02:40;99862.80;;;-0.40
67353;BMP180;54238;52.278;21.056;2023-11-21T05:05:13;99864.60;;;-0.32
67353;BMP180;54238;52.278;21.056;2023-11-21T05:07:42;99859.00;;;-0.32
67353;BMP180;54238;52.278;21.056;2023-11-21T05:10:10;99856.40;;;-0.40
67353;BMP180;54238;52.278;21.056;2023-11-21T05:12:42;99858.60;;;-0.40
67353;BMP180;54238;52.278;21.056;2023-11-21T05:15:15;99864.00;;;-0.38
67353;BMP180;54238;52.278;21.056;2023-11-21T05:17:42;99873.00;;;-0.30
67353;BMP180;54238;52.278;21.056;2023-11-21T05:20:13;99879.40;;;-0.30
67353;BMP180;54238;52.278;21.056;2023-11-21T05:22:43;99878.80;;;-0.30
67353;BMP180;54238;52.278;21.056;2023-11-21T05:25:12;99878.60;;;-0.28
67353;BMP180;54238;52.278;21.056;2023-11-21T05:27:46;99873.00;;;-0.26
67353;BMP180;54238;52.278;21.056;2023-11-21T05:30:14;99886.00;;;-0.28
67353;BMP180;54238;52.278;21.056;2023-11-21T05:32:41;99883.00;;;-0.20
67353;BMP180;54238;52.278;21.056;2023-11-21T05:35:13;99883.60;;;-0.30
67353;BMP180;54238;52.278;21.056;2023-11-21T05:37:45;99883.60;;;-0.30
67353;BMP180;54238;52.278;21.056;2023-11-21T05:40:15;99890.40;;;-0.40
67353;BMP180;54238;52.278;21.056;2023-11-21T05:42:46;99887.60;;;-0.40
67353;BMP180;54238;52.278;21.056;2023-11-21T05:45:14;99889.60;;;-0.40
67353;BMP180;54238;52.278;21.056;2023-11-21T05:47:46;99893.20;;;-0.40
67353;BMP180;54238;52.278;21.056;2023-11-21T05:50:16;99897.80;;;-0.40
67353;BMP180;54238;52.278;21.056;2023-11-21T05:52:46;99905.00;;;-0.34
67353;BMP180;54238;52.278;21.056;2023-11-21T05:55:15;99904.00;;;-0.30
67353;BMP180;54238;52.278;21.056;2023-11-21T05:57:43;99910.60;;;-0.30
67353;BMP180;54238;52.278;21.056;2023-11-21T06:00:15;99912.60;;;-0.30
67353;BMP180;54238;52.278;21.056;2023-11-21T06:02:50;99917.40;;;-0.30
67353;BMP180;54238;52.278;21.056;2023-11-21T06:05:25;99913.40;;;-0.26
67353;BMP180;54238;52.278;21.056;2023-11-21T06:07:56;99923.20;;;-0.30
67353;BMP180;54238;52.278;21.056;2023-11-21T06:10:30;99922.60;;;-0.30
67353;BMP180;54238;52.278;21.056;2023-11-21T06:13:00;99922.80;;;-0.30
67353;BMP180;54238;52.278;21.056;2023-11-21T06:15:30;99929.40;;;-0.30
67353;BMP180;54238;52.278;21.056;2023-11-21T06:18:02;99932.00;;;-0.30
67353;BMP180;54238;52.278;21.056;2023-11-21T06:20:32;99935.00;;;-0.30
67353;BMP180;54238;52.278;21.056;2023-11-21T06:23:03;99937.20;;;-0.30
67353;BMP180;54238;52.278;21.056;2023-11-21T06:25:33;99936.40;;;-0.30
67353;BMP180;54238;52.278;21.056;2023-11-21T06:28:06;99946.00;;;-0.30
67353;BMP180;54238;52.278;21.056;2023-11-21T06:30:32;99943.00;;;-0.30
67353;BMP180;54238;52.278;21.056;2023-11-21T06:33:08;99945.80;;;-0.30
67353;BMP180;54238;52.278;21.056;2023-11-21T06:35:39;99946.60;;;-0.30
67353;BMP180;54238;52.278;21.056;2023-11-21T06:38:06;99952.00;;;-0.30
67353;BMP180;54238;52.278;21.056;2023-11-21T06:40:36;99949.60;;;-0.30
67353;BMP180;54238;52.278;21.056;2023-11-21T06:43:03;99946.20;;;-0.30
67353;BMP180;54238;52.278;21.056;2023-11-21T06:45:31;99949.60;;;-0.30
67353;BMP180;54238;52.278;21.056;2023-11-21T06:48:01;99956.40;;;-0.30
67353;BMP180;54238;52.278;21.056;2023-11-21T06:50:30;99957.00;;;-0.30
67353;BMP180;54238;52.278;21.056;2023-11-21T06:52:57;99966.80;;;-0.20
67353;BMP180;54238;52.278;21.056;2023-11-21T06:55:31;99969.80;;;-0.20
67353;BMP180;54238;52.278;21.056;2023-11-21T06:58:04;99974.60;;;-0.20
67353;BMP180;54238;52.278;21.056;2023-11-21T07:00:38;99975.00;;;-0.20
67353;BMP180;54238;52.278;21.056;2023-11-21T07:03:13;99976.80;;;-0.16
67353;BMP180;54238;52.278;21.056;2023-11-21T07:05:40;99981.80;;;-0.18
67353;BMP180;54238;52.278;21.056;2023-11-21T07:08:12;99985.40;;;-0.20
67353;BMP180;54238;52.278;21.056;2023-11-21T07:10:44;99993.60;;;-0.20
67353;BMP180;54238;52.278;21.056;2023-11-21T07:13:14;99993.00;;;-0.20
67353;BMP180;54238;52.278;21.056;2023-11-21T07:15:41;99993.60;;;-0.20
67353;BMP180;54238;52.278;21.056;2023-11-21T07:18:12;99989.80;;;-0.20
67353;BMP180;54238;52.278;21.056;2023-11-21T07:20:44;99991.40;;;-0.20
67353;BMP180;54238;52.278;21.056;2023-11-21T07:23:11;99994.00;;;-0.20
67353;BMP180;54238;52.278;21.056;2023-11-21T07:25:42;99991.20;;;-0.20
67353;BMP180;54238;52.278;21.056;2023-11-21T07:28:10;99999.80;;;-0.20
67353;BMP180;54238;52.278;21.056;2023-11-21T07:30:39;100004.60;;;-0.20
67353;BMP180;54238;52.278;21.056;2023-11-21T07:33:06;100002.00;;;-0.20
67353;BMP180;54238;52.278;21.056;2023-11-21T07:35:34;100003.80;;;-0.18
67353;BMP180;54238;52.278;21.056;2023-11-21T07:38:01;100007.60;;;-0.10
67353;BMP180;54238;52.278;21.056;2023-11-21T07:40:32;100008.00;;;-0.10
67353;BMP180;54238;52.278;21.056;2023-11-21T07:43:02;100009.00;;;-0.10
67353;BMP180;54238;52.278;21.056;2023-11-21T07:45:29;100006.00;;;-0.10
67353;BMP180;54238;52.278;21.056;2023-11-21T07:47:58;100007.60;;;-0.10
67353;BMP180;54238;52.278;21.056;2023-11-21T07:50:25;100007.00;;;-0.10
67353;BMP180;54238;52.278;21.056;2023-11-21T07:52:57;100008.00;;;-0.10
67353;BMP180;54238;52.278;21.056;2023-11-21T07:55:29;100011.20;;;-0.10
67353;BMP180;54238;52.278;21.056;2023-11-21T07:58:02;100011.40;;;-0.10
67353;BMP180;54238;52.278;21.056;2023-11-21T08:00:28;100013.00;;;-0.08
67353;BMP180;54238;52.278;21.056;2023-11-21T08:03:02;100015.80;;;0.00
67353;BMP180;54238;52.278;21.056;2023-11-21T08:05:32;100017.40;;;0.00
67353;BMP180;54238;52.278;21.056;2023-11-21T08:08:01;100016.60;;;0.00
67353;BMP180;54238;52.278;21.056;2023-11-21T08:10:28;100016.60;;;0.00
67353;BMP180;54238;52.278;21.056;2023-11-21T08:12:56;100022.00;;;0.00
67353;BMP180;54238;52.278;21.056;2023-11-21T08:15:27;100021.60;;;0.00
67353;BMP180;54238;52.278;21.056;2023-11-21T08:17:57;100021.40;;;0.10
67353;BMP180;54238;52.278;21.056;2023-11-21T08:20:26;100024.40;;;0.10
67353;BMP180;54238;52.278;21.056;2023-11-21T08:22:53;100023.20;;;0.10
67353;BMP180;54238;52.278;21.056;2023-11-21T08:25:20;100032.40;;;0.10
67353;BMP180;54238;52.278;21.056;2023-11-21T08:27:47;100037.20;;;0.20
67353;BMP180;54238;52.278;21.056;2023-11-21T08:30:20;100041.00;;;0.20
67353;BMP180;54238;52.278;21.056;2023-11-21T08:32:50;100042.00;;;0.20
67353;BMP180;54238;52.278;21.056;2023-11-21T08:35:18;100044.60;;;0.20
67353;BMP180;54238;52.278;21.056;2023-11-21T08:37:46;100046.20;;;0.10
67353;BMP180;54238;52.278;21.056;2023-11-21T08:40:12;100045.80;;;0.10
67353;BMP180;54238;52.278;21.056;2023-11-21T08:42:43;100048.60;;;0.10
67353;BMP180;54238;52.278;21.056;2023-11-21T08:45:12;100057.00;;;0.10
67353;BMP180;54238;52.278;21.056;2023-11-21T08:47:45;100055.60;;;0.16
67353;BMP180;54238;52.278;21.056;2023-11-21T08:50:14;100056.80;;;0.20
67353;BMP180;54238;52.278;21.056;2023-11-21T08:52:46;100057.00;;;0.20
67353;BMP180;54238;52.278;21.056;2023-11-21T08:55:16;100056.20;;;0.24
67353;BMP180;54238;52.278;21.056;2023-11-21T08:57:47;100057.00;;;0.26
67353;BMP180;54238;52.278;21.056;2023-11-21T09:00:14;100062.80;;;0.30
67353;BMP180;54238;52.278;21.056;2023-11-21T09:02:49;100072.40;;;0.30
67353;BMP180;54238;52.278;21.056;2023-11-21T09:05:18;100078.20;;;0.30
67353;BMP180;54238;52.278;21.056;2023-11-21T09:07:47;100078.40;;;0.34
67353;BMP180;54238;52.278;21.056;2023-11-21T09:10:19;100079.00;;;0.40
67353;BMP180;54238;52.278;21.056;2023-11-21T09:12:47;100078.00;;;0.40
67353;BMP180;54238;52.278;21.056;2023-11-21T09:15:14;100081.40;;;0.40
67353;BMP180;54238;52.278;21.056;2023-11-21T09:17:41;100078.80;;;0.50
67353;BMP180;54238;52.278;21.056;2023-11-21T09:20:12;100081.60;;;0.50
67353;BMP180;54238;52.278;21.056;2023-11-21T09:22:44;100081.20;;;0.60
67353;BMP180;54238;52.278;21.056;2023-11-21T09:25:14;100086.40;;;0.60
67353;BMP180;54238;52.278;21.056;2023-11-21T09:27:41;100090.20;;;0.62
67353;BMP180;54238;52.278;21.056;2023-11-21T09:30:14;100089.80;;;0.70
67353;BMP180;54238;52.278;21.056;2023-11-21T09:32:43;100090.80;;;0.70
67353;BMP180;54238;52.278;21.056;2023-11-21T09:35:15;100088.80;;;0.80
67353;BMP180;54238;52.278;21.056;2023-11-21T09:37:44;100095.60;;;0.80
67353;BMP180;54238;52.278;21.056;2023-11-21T09:40:17;100091.20;;;0.90
67353;BMP180;54238;52.278;21.056;2023-11-21T09:42:56;100092.20;;;0.90
67353;BMP180;54238;52.278;21.056;2023-11-21T09:45:36;100090.00;;;0.90
67353;BMP180;54238;52.278;21.056;2023-11-21T09:48:05;100090.80;;;0.90
67353;BMP180;54238;52.278;21.056;2023-11-21T09:50:36;100086.00;;;0.90
67353;BMP180;54238;52.278;21.056;2023-11-21T09:53:21;100088.00;;;0.90
67353;BMP180;54238;52.278;21.056;2023-11-21T09:55:56;100089.40;;;0.90
67353;BMP180;54238;52.278;21.056;2023-11-21T09:58:23;100089.20;;;0.90
67353;BMP180;54238;52.278;21.056;2023-11-21T10:00:55;100093.00;;;0.94
67353;BMP180;54238;52.278;21.056;2023-11-21T10:03:24;100089.80;;;1.00
67353;BMP180;54238;52.278;21.056;2023-11-21T10:05:53;100092.00;;;1.00
67353;BMP180;54238;52.278;21.056;2023-11-21T10:08:28;100095.80;;;1.10
67353;BMP180;54238;52.278;21.056;2023-11-21T10:10:58;100103.40;;;1.10
67353;BMP180;54238;52.278;21.056;2023-11-21T10:13:30;100104.20;;;1.00
67353;BMP180;54238;52.278;21.056;2023-11-21T10:16:06;100105.80;;;1.00
67353;BMP180;54238;52.278;21.056;2023-11-21T10:18:36;100107.20;;;1.00
67353;BMP180;54238;52.278;21.056;2023-11-21T10:21:09;100107.20;;;0.98
67353;BMP180;54238;52.278;21.056;2023-11-21T10:23:41;100107.20;;;1.00
67353;BMP180;54238;52.278;21.056;2023-11-21T10:26:12;100109.00;;;0.98
67353;BMP180;54238;52.278;21.056;2023-11-21T10:29:02;100111.40;;;0.90
67353;BMP180;54238;52.278;21.056;2023-11-21T10:31:38;100105.80;;;0.90
67353;BMP180;54238;52.278;21.056;2023-11-21T10:34:18;100112.20;;;0.80
67353;BMP180;54238;52.278;21.056;2023-11-21T10:36:50;100108.80;;;0.80
67353;BMP180;54238;52.278;21.056;2023-11-21T10:39:22;100109.20;;;0.70
67353;BMP180;54238;52.278;21.056;2023-11-21T10:41:51;100107.80;;;0.78
67353;BMP180;54238;52.278;21.056;2023-11-21T10:44:23;100110.80;;;0.80
67353;BMP180;54238;52.278;21.056;2023-11-21T10:46:53;100118.40;;;0.80
67353;BMP180;54238;52.278;21.056;2023-11-21T10:49:27;100118.40;;;0.80
67353;BMP180;54238;52.278;21.056;2023-11-21T10:51:57;100120.20;;;0.80
67353;BMP180;54238;52.278;21.056;2023-11-21T10:54:25;100121.60;;;0.80
67353;BMP180;54238;52.278;21.056;2023-11-21T10:57:04;100125.40;;;0.80
67353;BMP180;54238;52.278;21.056;2023-11-21T10:59:38;100126.60;;;0.88
67353;BMP180;54238;52.278;21.056;2023-11-21T11:02:26;100130.60;;;0.90
67353;BMP180;54238;52.278;21.056;2023-11-21T11:04:54;100132.60;;;0.90
67353;BMP180;54238;52.278;21.056;2023-11-21T11:07:27;100133.80;;;0.80
67353;BMP180;54238;52.278;21.056;2023-11-21T11:09:55;100131.00;;;0.80
67353;BMP180;54238;52.278;21.056;2023-11-21T11:12:24;100128.20;;;0.80
67353;BMP180;54238;52.278;21.056;2023-11-21T11:14:51;100133.40;;;0.80
67353;BMP180;54238;52.278;21.056;2023-11-21T11:17:23;100129.60;;;0.80
67353;BMP180;54238;52.278;21.056;2023-11-21T11:19:50;100128.80;;;0.80
67353;BMP180;54238;52.278;21.056;2023-11-21T11:28:10;100135.60;;;0.80
67353;BMP180;54238;52.278;21.056;2023-11-21T11:31:29;100137.80;;;0.70
67353;BMP180;54238;52.278;21.056;2023-11-21T11:34:32;100132.20;;;0.64
67353;BMP180;54238;52.278;21.056;2023-11-21T11:37:05;100138.00;;;0.60
67353;BMP180;54238;52.278;21.056;2023-11-21T11:39:41;100143.20;;;0.50
67353;BMP180;54238;52.278;21.056;2023-11-21T11:42:14;100141.80;;;0.50
67353;BMP180;54238;52.278;21.056;2023-11-21T11:47:29;100144.20;;;0.50
67353;BMP180;54238;52.278;21.056;2023-11-21T11:50:12;100143.00;;;0.50
67353;BMP180;54238;52.278;21.056;2023-11-21T11:52:51;100139.20;;;0.50
67353;BMP180;54238;52.278;21.056;2023-11-21T11:55:22;100137.20;;;0.50
67353;BMP180;54238;52.278;21.056;2023-11-21T11:57:54;100135.80;;;0.50
67353;BMP180;54238;52.278;21.056;2023-11-21T12:03:03;100144.80;;;0.48
67353;BMP180;54238;52.278;21.056;2023-11-21T12:05:35;100145.80;;;0.50
67353;BMP180;54238;52.278;21.056;2023-11-21T12:08:10;100146.20;;;0.50
67353;BMP180;54238;52.278;21.056;2023-11-21T12:10:43;100146.00;;;0.50
67353;BMP180;54238;52.278;21.056;2023-11-21T12:13:11;100143.20;;;0.50
67353;BMP180;54238;52.278;21.056;2023-11-21T12:15:43;100144.60;;;0.50
67353;BMP180;54238;52.278;21.056;2023-11-21T12:18:14;100148.80;;;0.56
67353;BMP180;54238;52.278;21.056;2023-11-21T12:20:41;100153.80;;;0.60
67353;BMP180;54238;52.278;21.056;2023-11-21T12:23:12;100165.40;;;0.60
67353;BMP180;54238;52.278;21.056;2023-11-21T12:25:43;100165.80;;;0.64
67353;BMP180;54238;52.278;21.056;2023-11-21T12:28:10;100163.80;;;0.70
67353;BMP180;54238;52.278;21.056;2023-11-21T12:30:48;100163.40;;;0.70
67353;BMP180;54238;52.278;21.056;2023-11-21T12:33:20;100165.20;;;0.70
67353;BMP180;54238;52.278;21.056;2023-11-21T12:35:50;100170.80;;;0.70
67353;BMP180;54238;52.278;21.056;2023-11-21T12:38:17;100170.40;;;0.70
67353;BMP180;54238;52.278;21.056;2023-11-21T12:40:48;100181.80;;;0.68
67353;BMP180;54238;52.278;21.056;2023-11-21T12:43:21;100177.60;;;0.70
67353;BMP180;54238;52.278;21.056;2023-11-21T12:45:53;100179.20;;;0.70
67353;BMP180;54238;52.278;21.056;2023-11-21T12:48:32;100180.80;;;0.70
67353;BMP180;54238;52.278;21.056;2023-11-21T12:51:07;100182.20;;;0.70
67353;BMP180;54238;52.278;21.056;2023-11-21T12:53:38;100179.00;;;0.70
67353;BMP180;54238;52.278;21.056;2023-11-21T12:56:10;100180.80;;;0.74
67353;BMP180;54238;52.278;21.056;2023-11-21T12:58:39;100178.20;;;0.80
67353;BMP180;54238;52.278;21.056;2023-11-21T13:01:07;100180.00;;;0.74
67353;BMP180;54238;52.278;21.056;2023-11-21T13:03:43;100183.60;;;0.70
67353;BMP180;54238;52.278;21.056;2023-11-21T13:06:15;100187.00;;;0.70
67353;BMP180;54238;52.278;21.056;2023-11-21T13:08:46;100194.20;;;0.64
67353;BMP180;54238;52.278;21.056;2023-11-21T13:11:13;100201.60;;;0.70
67353;BMP180;54238;52.278;21.056;2023-11-21T13:13:42;100203.60;;;0.70
67353;BMP180;54238;52.278;21.056;2023-11-21T13:16:14;100205.80;;;0.64
67353;BMP180;54238;52.278;21.056;2023-11-21T13:18:42;100205.40;;;0.60
67353;BMP180;54238;52.278;21.056;2023-11-21T13:21:12;100199.60;;;0.60
67353;BMP180;54238;52.278;21.056;2023-11-21T13:23:48;100203.00;;;0.58
67353;BMP180;54238;52.278;21.056;2023-11-21T13:26:24;100205.80;;;0.50
67353;BMP180;54238;52.278;21.056;2023-11-21T13:28:52;100210.00;;;0.40
67353;BMP180;54238;52.278;21.056;2023-11-21T13:31:28;100213.80;;;0.40
67353;BMP180;54238;52.278;21.056;2023-11-21T13:34:01;100221.40;;;0.36
67353;BMP180;54238;52.278;21.056;2023-11-21T13:36:32;100225.80;;;0.40
67353;BMP180;54238;52.278;21.056;2023-11-21T13:39:02;100223.40;;;0.30
67353;BMP180;54238;52.278;21.056;2023-11-21T13:41:37;100233.60;;;0.30
67353;BMP180;54238;52.278;21.056;2023-11-21T13:44:07;100233.60;;;0.30
67353;BMP180;54238;52.278;21.056;2023-11-21T13:46:53;100238.40;;;0.30
67353;BMP180;54238;52.278;21.056;2023-11-21T13:49:24;100244.60;;;0.30
67353;BMP180;54238;52.278;21.056;2023-11-21T13:51:54;100251.80;;;0.30
67353;BMP180;54238;52.278;21.056;2023-11-21T13:54:24;100258.80;;;0.30
67353;BMP180;54238;52.278;21.056;2023-11-21T13:56:54;100258.60;;;0.30
67353;BMP180;54238;52.278;21.056;2023-11-21T13:59:23;100263.20;;;0.28
67353;BMP180;54238;52.278;21.056;2023-11-21T14:01:57;100273.60;;;0.22
67353;BMP180;54238;52.278;21.056;2023-11-21T14:04:39;100283.80;;;0.30
67353;BMP180;54238;52.278;21.056;2023-11-21T14:07:23;100291.20;;;0.22
67353;BMP180;54238;52.278;21.056;2023-11-21T14:10:05;100299.40;;;0.20
67353;BMP180;54238;52.278;21.056;2023-11-21T14:12:40;100294.40;;;0.20
67353;BMP180;54238;52.278;21.056;2023-11-21T14:15:12;100298.60;;;0.20
67353;BMP180;54238;52.278;21.056;2023-11-21T14:17:45;100299.40;;;0.20
67353;BMP180;54238;52.278;21.056;2023-11-21T14:20:12;100306.00;;;0.20
67353;BMP180;54238;52.278;21.056;2023-11-21T14:22:44;100307.80;;;0.14
67353;BMP180;54238;52.278;21.056;2023-11-21T14:25:12;100322.20;;;0.10
67353;BMP180;54238;52.278;21.056;2023-11-21T14:27:41;100322.60;;;0.10
67353;BMP180;54238;52.278;21.056;2023-11-21T14:30:10;100329.00;;;0.10